sensor_id;sensor_type;location;lat;lon;timestamp;pressure;altitude;pressure_sealevel;temperature;humidity
5780;BME280;2916;49.798;10.022;2023-03-23T00:02:24;147520.44;;;13.14;62.33
5780;BME280;2916;49.798;10.022;2023-03-23T00:04:52;147493.06;;;13.02;62.61
5780;BME280;2916;49.798;10.022;2023-03-23T00:07:20;147571.44;;;13.35;62.11
5780;BME280;2916;49.798;10.022;2023-03-23T00:09:48;147484.38;;;12.99;62.83
5780;BME280;2916;49.798;10.022;2023-03-23T00:12:21;147563.97;;;13.32;63.22
5780;BME280;2916;49.798;10.022;2023-03-23T00:14:59;147560.25;;;13.30;63.17
5780;BME280;2916;49.798;10.022;2023-03-23T00:17:26;147529.13;;;13.17;62.53
5780;BME280;2916;49.798;10.022;2023-03-23T00:19:53;147527.88;;;13.17;62.79
5780;BME280;2916;49.798;10.022;2023-03-23T00:22:22;147554.00;;;13.27;62.88
5780;BME280;2916;49.798;10.022;2023-03-23T00:24:51;147462.00;;;12.90;63.01
5780;BME280;2916;49.798;10.022;2023-03-23T00:27:21;147521.66;;;13.14;63.12
5780;BME280;2916;49.798;10.022;2023-03-23T00:29:49;147531.59;;;13.18;63.67
5780;BME280;2916;49.798;10.022;2023-03-23T00:32:19;147539.06;;;13.21;63.49
5780;BME280;2916;49.798;10.022;2023-03-23T00:34:52;147536.59;;;13.20;63.71
5780;BME280;2916;49.798;10.022;2023-03-23T00:37:20;147531.59;;;13.18;63.93
5780;BME280;2916;49.798;10.022;2023-03-23T00:39:48;147494.31;;;13.03;64.49
5780;BME280;2916;49.798;10.022;2023-03-23T00:42:19;147424.72;;;12.74;64.63
5780;BME280;2916;49.798;10.022;2023-03-23T00:44:47;147514.19;;;13.11;64.87
5780;BME280;2916;49.798;10.022;2023-03-23T00:47:14;147510.47;;;13.10;65.15
5780;BME280;2916;49.798;10.022;2023-03-23T00:49:43;147480.66;;;12.97;65.10
5780;BME280;2916;49.798;10.022;2023-03-23T00:52:10;147511.72;;;13.10;65.25
5780;BME280;2916;49.798;10.022;2023-03-23T00:54:37;147510.47;;;13.10;65.66
5780;BME280;2916;49.798;10.022;2023-03-23T00:57:05;147508.00;;;13.09;65.53
5780;BME280;2916;49.798;10.022;2023-03-23T00:59:34;147392.38;;;12.61;65.32
5780;BME280;2916;49.798;10.022;2023-03-23T01:02:01;147511.72;;;13.10;64.98
5780;BME280;2916;49.798;10.022;2023-03-23T01:04:28;147511.72;;;13.10;65.00
5780;BME280;2916;49.798;10.022;2023-03-23T01:06:57;147470.72;;;12.93;64.99
5780;BME280;2916;49.798;10.022;2023-03-23T01:09:26;147445.84;;;12.83;64.65
5780;BME280;2916;49.798;10.022;2023-03-23T01:11:54;147509.25;;;13.09;64.88
5780;BME280;2916;49.798;10.022;2023-03-23T01:14:22;147506.72;;;13.08;64.91
5780;BME280;2916;49.798;10.022;2023-03-23T01:16:52;147463.25;;;12.90;64.50
5780;BME280;2916;49.798;10.022;2023-03-23T01:19:19;147509.25;;;13.09;64.28
5780;BME280;2916;49.798;10.022;2023-03-23T01:21:46;147484.38;;;12.99;64.41
5780;BME280;2916;49.798;10.022;2023-03-23T01:24:13;147503.00;;;13.07;64.04
5780;BME280;2916;49.798;10.022;2023-03-23T01:26:40;147479.41;;;12.97;64.07
5780;BME280;2916;49.798;10.022;2023-03-23T01:29:07;147506.72;;;13.08;64.05
5780;BME280;2916;49.798;10.022;2023-03-23T01:31:35;147516.66;;;13.12;63.79
5780;BME280;2916;49.798;10.022;2023-03-23T01:34:05;147437.13;;;12.80;63.34
5780;BME280;2916;49.798;10.022;2023-03-23T01:36:32;147498.00;;;13.05;63.95
5780;BME280;2916;49.798;10.022;2023-03-23T01:39:00;147500.53;;;13.06;64.04
5780;BME280;2916;49.798;10.022;2023-03-23T01:41:30;147496.78;;;13.04;63.78
5780;BME280;2916;49.798;10.022;2023-03-23T01:44:01;147489.34;;;13.01;64.01
5780;BME280;2916;49.798;10.022;2023-03-23T01:46:32;147414.78;;;12.70;63.86
5780;BME280;2916;49.798;10.022;2023-03-23T01:49:06;147464.47;;;12.91;63.83
5780;BME280;2916;49.798;10.022;2023-03-23T01:51:39;147481.88;;;12.98;63.73
5780;BME280;2916;49.798;10.022;2023-03-23T01:54:11;147483.13;;;12.98;63.70
5780;BME280;2916;49.798;10.022;2023-03-23T01:56:47;147476.88;;;12.96;63.99
5780;BME280;2916;49.798;10.022;2023-03-23T01:59:15;147372.50;;;12.53;63.72
5780;BME280;2916;49.798;10.022;2023-03-23T02:01:43;147448.31;;;12.84;63.47
5780;BME280;2916;49.798;10.022;2023-03-23T02:04:15;147481.88;;;12.98;63.44
5780;BME280;2916;49.798;10.022;2023-03-23T02:06:43;147484.38;;;12.99;63.10
5780;BME280;2916;49.798;10.022;2023-03-23T02:09:12;147448.31;;;12.84;62.96
5780;BME280;2916;49.798;10.022;2023-03-23T02:11:43;147481.88;;;12.98;62.92
5780;BME280;2916;49.798;10.022;2023-03-23T02:14:11;147491.81;;;13.02;62.88
5780;BME280;2916;49.798;10.022;2023-03-23T02:16:44;147489.34;;;13.01;62.79
5780;BME280;2916;49.798;10.022;2023-03-23T02:19:50;147494.31;;;13.03;62.69
5780;BME280;2916;49.798;10.022;2023-03-23T02:22:49;147483.13;;;12.98;63.28
5780;BME280;2916;49.798;10.022;2023-03-23T02:25:45;147474.41;;;12.95;63.09
5780;BME280;2916;49.798;10.022;2023-03-23T02:28:31;147466.94;;;12.92;63.55
5780;BME280;2916;49.798;10.022;2023-03-23T02:31:32;147397.38;;;12.63;64.00
5780;BME280;2916;49.798;10.022;2023-03-23T02:34:13;147409.78;;;12.68;63.71
5780;BME280;2916;49.798;10.022;2023-03-23T02:36:49;147382.44;;;12.57;63.58
5780;BME280;2916;49.798;10.022;2023-03-23T02:39:21;147363.78;;;12.49;63.84
5780;BME280;2916;49.798;10.022;2023-03-23T02:41:54;147394.91;;;12.62;64.10
5780;BME280;2916;49.798;10.022;2023-03-23T02:44:24;147427.19;;;12.75;64.09
5780;BME280;2916;49.798;10.022;2023-03-23T02:46:57;147424.72;;;12.74;64.14
5780;BME280;2916;49.798;10.022;2023-03-23T02:49:32;147417.25;;;12.71;63.73
5780;BME280;2916;49.798;10.022;2023-03-23T02:52:04;147412.31;;;12.69;63.95
5780;BME280;2916;49.798;10.022;2023-03-23T02:54:34;147412.31;;;12.69;64.05
5780;BME280;2916;49.798;10.022;2023-03-23T02:57:03;147407.31;;;12.67;63.93
5780;BME280;2916;49.798;10.022;2023-03-23T02:59:31;147404.84;;;12.66;64.32
5780;BME280;2916;49.798;10.022;2023-03-23T03:02:05;147398.59;;;12.64;64.41
5780;BME280;2916;49.798;10.022;2023-03-23T03:04:36;147387.44;;;12.59;64.11
5780;BME280;2916;49.798;10.022;2023-03-23T03:07:32;147317.84;;;12.31;64.46
5780;BME280;2916;49.798;10.022;2023-03-23T03:10:09;147345.19;;;12.42;64.81
5780;BME280;2916;49.798;10.022;2023-03-23T03:12:46;147366.31;;;12.50;64.42
5780;BME280;2916;49.798;10.022;2023-03-23T03:15:26;147373.72;;;12.53;64.38
5780;BME280;2916;49.798;10.022;2023-03-23T03:18:06;147255.72;;;12.05;64.92
5780;BME280;2916;49.798;10.022;2023-03-23T03:20:43;147348.91;;;12.43;64.80
5780;BME280;2916;49.798;10.022;2023-03-23T03:23:14;147358.84;;;12.47;65.07
5780;BME280;2916;49.798;10.022;2023-03-23T03:25:44;147343.91;;;12.41;64.28
5780;BME280;2916;49.798;10.022;2023-03-23T03:28:16;147357.63;;;12.47;64.96
5780;BME280;2916;49.798;10.022;2023-03-23T03:30:49;147365.06;;;12.50;65.00
5780;BME280;2916;49.798;10.022;2023-03-23T03:33:20;147352.63;;;12.45;64.81
5780;BME280;2916;49.798;10.022;2023-03-23T03:35:54;147360.09;;;12.48;64.74
5780;BME280;2916;49.798;10.022;2023-03-23T03:38:23;147332.75;;;12.37;65.09
5780;BME280;2916;49.798;10.022;2023-03-23T03:40:51;147355.13;;;12.46;64.88
5780;BME280;2916;49.798;10.022;2023-03-23T03:43:18;147367.56;;;12.51;64.74
5780;BME280;2916;49.798;10.022;2023-03-23T03:45:46;147372.50;;;12.53;64.52
5780;BME280;2916;49.798;10.022;2023-03-23T03:48:13;147379.97;;;12.56;64.75
5780;BME280;2916;49.798;10.022;2023-03-23T03:50:41;147285.53;;;12.17;64.27
5780;BME280;2916;49.798;10.022;2023-03-23T03:53:09;147382.44;;;12.57;64.12
5780;BME280;2916;49.798;10.022;2023-03-23T03:55:36;147392.38;;;12.61;64.13
5780;BME280;2916;49.798;10.022;2023-03-23T03:58:04;147237.09;;;11.97;64.30
5780;BME280;2916;49.798;10.022;2023-03-23T04:00:33;147398.59;;;12.64;64.50
5780;BME280;2916;49.798;10.022;2023-03-23T04:03:00;147399.84;;;12.64;64.54
5780;BME280;2916;49.798;10.022;2023-03-23T04:05:28;147377.50;;;12.55;63.99
5780;BME280;2916;49.798;10.022;2023-03-23T04:07:56;147403.59;;;12.66;64.13
5780;BME280;2916;49.798;10.022;2023-03-23T04:10:30;147424.72;;;12.74;63.85
5780;BME280;2916;49.798;10.022;2023-03-23T04:12:57;147307.91;;;12.26;63.63
5780;BME280;2916;49.798;10.022;2023-03-23T04:15:25;147309.16;;;12.27;64.30
5780;BME280;2916;49.798;10.022;2023-03-23T04:17:52;147418.47;;;12.72;63.91
5780;BME280;2916;49.798;10.022;2023-03-23T04:20:23;147429.66;;;12.76;63.58
5780;BME280;2916;49.798;10.022;2023-03-23T04:22:52;147357.63;;;12.47;63.57
5780;BME280;2916;49.798;10.022;2023-03-23T04:25:21;147430.91;;;12.77;64.06
5780;BME280;2916;49.798;10.022;2023-03-23T04:27:51;147420.97;;;12.73;64.01
5780;BME280;2916;49.798;10.022;2023-03-23T04:30:21;147424.72;;;12.74;64.03
5780;BME280;2916;49.798;10.022;2023-03-23T04:32:51;147432.19;;;12.77;64.13
5780;BME280;2916;49.798;10.022;2023-03-23T04:35:24;147429.66;;;12.76;63.86
5780;BME280;2916;49.798;10.022;2023-03-23T04:37:52;147435.91;;;12.79;63.83
5780;BME280;2916;49.798;10.022;2023-03-23T04:40:22;147327.78;;;12.35;63.60
5780;BME280;2916;49.798;10.022;2023-03-23T04:42:50;147445.84;;;12.83;63.83
5780;BME280;2916;49.798;10.022;2023-03-23T04:45:23;147413.53;;;12.70;64.56
5780;BME280;2916;49.798;10.022;2023-03-23T04:47:51;147439.59;;;12.81;63.92
5780;BME280;2916;49.798;10.022;2023-03-23T04:50:24;147442.13;;;12.82;64.08
5780;BME280;2916;49.798;10.022;2023-03-23T04:52:53;147437.13;;;12.80;64.02
5780;BME280;2916;49.798;10.022;2023-03-23T04:55:23;147366.31;;;12.50;64.31
5780;BME280;2916;49.798;10.022;2023-03-23T04:57:52;147351.38;;;12.44;64.35
5780;BME280;2916;49.798;10.022;2023-03-23T05:00:20;147433.41;;;12.78;64.35
5780;BME280;2916;49.798;10.022;2023-03-23T05:02:48;147432.19;;;12.77;64.51
5780;BME280;2916;49.798;10.022;2023-03-23T05:05:18;147437.13;;;12.80;64.74
5780;BME280;2916;49.798;10.022;2023-03-23T05:07:46;147437.13;;;12.80;64.48
5780;BME280;2916;49.798;10.022;2023-03-23T05:10:14;147396.13;;;12.63;64.34
5780;BME280;2916;49.798;10.022;2023-03-23T05:12:43;147447.06;;;12.84;64.55
5780;BME280;2916;49.798;10.022;2023-03-23T05:15:14;147444.59;;;12.83;64.61
5780;BME280;2916;49.798;10.022;2023-03-23T05:17:42;147438.38;;;12.80;64.60
5780;BME280;2916;49.798;10.022;2023-03-23T05:20:13;147433.41;;;12.78;64.79
5780;BME280;2916;49.798;10.022;2023-03-23T05:22:44;147414.78;;;12.70;65.07
5780;BME280;2916;49.798;10.022;2023-03-23T05:25:13;147427.19;;;12.75;65.38
5780;BME280;2916;49.798;10.022;2023-03-23T05:27:40;147427.19;;;12.75;64.94
5780;BME280;2916;49.798;10.022;2023-03-23T05:30:11;147429.66;;;12.76;64.92
5780;BME280;2916;49.798;10.022;2023-03-23T05:32:41;147368.78;;;12.51;65.67
5780;BME280;2916;49.798;10.022;2023-03-23T05:35:08;147417.25;;;12.71;65.47
5780;BME280;2916;49.798;10.022;2023-03-23T05:37:35;147418.47;;;12.72;65.89
5780;BME280;2916;49.798;10.022;2023-03-23T05:40:03;147289.28;;;12.19;66.91
5780;BME280;2916;49.798;10.022;2023-03-23T05:42:33;147409.78;;;12.68;66.87
5780;BME280;2916;49.798;10.022;2023-03-23T05:45:01;147396.13;;;12.63;67.19
5780;BME280;2916;49.798;10.022;2023-03-23T05:47:30;147397.38;;;12.63;69.07
5780;BME280;2916;49.798;10.022;2023-03-23T05:49:58;147370.03;;;12.52;70.19
5780;BME280;2916;49.798;10.022;2023-03-23T05:52:26;147302.94;;;12.24;72.24
5780;BME280;2916;49.798;10.022;2023-03-23T05:54:54;147347.66;;;12.43;70.99
5780;BME280;2916;49.798;10.022;2023-03-23T05:57:21;147337.72;;;12.39;71.59
5780;BME280;2916;49.798;10.022;2023-03-23T05:59:49;147310.38;;;12.27;73.45
5780;BME280;2916;49.798;10.022;2023-03-23T06:02:16;147284.28;;;12.17;76.46
5780;BME280;2916;49.798;10.022;2023-03-23T06:04:44;147235.84;;;11.97;76.39
5780;BME280;2916;49.798;10.022;2023-03-23T06:07:11;147250.78;;;12.03;75.97
5780;BME280;2916;49.798;10.022;2023-03-23T06:09:40;147189.81;;;11.78;74.23
5780;BME280;2916;49.798;10.022;2023-03-23T06:12:09;147203.56;;;11.84;75.64
5780;BME280;2916;49.798;10.022;2023-03-23T06:14:37;147253.25;;;12.04;75.35
5780;BME280;2916;49.798;10.022;2023-03-23T06:17:04;147263.19;;;12.08;77.42
5780;BME280;2916;49.798;10.022;2023-03-23T06:19:31;147225.91;;;11.93;78.07
5780;BME280;2916;49.798;10.022;2023-03-23T06:22:01;147243.31;;;12.00;78.60
5780;BME280;2916;49.798;10.022;2023-03-23T06:24:28;147244.53;;;12.00;77.95
5780;BME280;2916;49.798;10.022;2023-03-23T06:26:56;147263.19;;;12.08;77.41
5780;BME280;2916;49.798;10.022;2023-03-23T06:29:23;147254.47;;;12.04;78.83
5780;BME280;2916;49.798;10.022;2023-03-23T06:31:54;147220.97;;;11.91;79.24
5780;BME280;2916;49.798;10.022;2023-03-23T06:34:22;147235.84;;;11.97;78.25
5780;BME280;2916;49.798;10.022;2023-03-23T06:36:50;147245.78;;;12.01;77.38
5780;BME280;2916;49.798;10.022;2023-03-23T06:39:19;147232.13;;;11.95;77.23
5780;BME280;2916;49.798;10.022;2023-03-23T06:41:48;147261.94;;;12.08;76.17
5780;BME280;2916;49.798;10.022;2023-03-23T06:44:15;147260.72;;;12.07;75.06
5780;BME280;2916;49.798;10.022;2023-03-23T06:46:43;147297.97;;;12.22;75.50
5780;BME280;2916;49.798;10.022;2023-03-23T06:49:10;147297.97;;;12.22;76.53
5780;BME280;2916;49.798;10.022;2023-03-23T06:51:38;147295.47;;;12.21;74.66
5780;BME280;2916;49.798;10.022;2023-03-23T06:54:06;147297.97;;;12.22;76.68
5780;BME280;2916;49.798;10.022;2023-03-23T06:56:34;147300.44;;;12.23;76.01
5780;BME280;2916;49.798;10.022;2023-03-23T06:59:02;147302.94;;;12.24;74.43
5780;BME280;2916;49.798;10.022;2023-03-23T07:01:29;147309.16;;;12.27;74.80
5780;BME280;2916;49.798;10.022;2023-03-23T07:03:56;147297.97;;;12.22;75.65
5780;BME280;2916;49.798;10.022;2023-03-23T07:06:24;147285.53;;;12.17;75.29
5780;BME280;2916;49.798;10.022;2023-03-23T07:08:52;147291.75;;;12.20;76.22
5780;BME280;2916;49.798;10.022;2023-03-23T07:11:19;147268.13;;;12.10;75.51
5780;BME280;2916;49.798;10.022;2023-03-23T07:13:48;147347.66;;;12.43;74.44
5780;BME280;2916;49.798;10.022;2023-03-23T07:16:16;147357.63;;;12.47;73.19
5780;BME280;2916;49.798;10.022;2023-03-23T07:18:44;147315.34;;;12.29;73.41
5780;BME280;2916;49.798;10.022;2023-03-23T07:21:11;147388.66;;;12.60;71.99
5780;BME280;2916;49.798;10.022;2023-03-23T07:23:39;147388.66;;;12.60;71.50
5780;BME280;2916;49.798;10.022;2023-03-23T07:26:07;147391.13;;;12.61;73.16
5780;BME280;2916;49.798;10.022;2023-03-23T07:28:35;147384.94;;;12.58;72.17
5780;BME280;2916;49.798;10.022;2023-03-23T07:31:04;147387.44;;;12.59;71.13
5780;BME280;2916;49.798;10.022;2023-03-23T07:33:33;147392.38;;;12.61;71.95
5780;BME280;2916;49.798;10.022;2023-03-23T07:36:01;147357.63;;;12.47;71.10
5780;BME280;2916;49.798;10.022;2023-03-23T07:38:29;147418.47;;;12.72;71.22
5780;BME280;2916;49.798;10.022;2023-03-23T07:40:56;147428.41;;;12.76;70.29
5780;BME280;2916;49.798;10.022;2023-03-23T07:43:23;147417.25;;;12.71;69.19
5780;BME280;2916;49.798;10.022;2023-03-23T07:45:51;147463.25;;;12.90;70.15
5780;BME280;2916;49.798;10.022;2023-03-23T07:48:19;147475.66;;;12.95;69.66
5780;BME280;2916;49.798;10.022;2023-03-23T07:50:46;147489.34;;;13.01;68.80
5780;BME280;2916;49.798;10.022;2023-03-23T07:53:15;147514.19;;;13.11;70.32
5780;BME280;2916;49.798;10.022;2023-03-23T07:55:42;147521.66;;;13.14;69.76
5780;BME280;2916;49.798;10.022;2023-03-23T07:58:09;147529.13;;;13.17;69.66
5780;BME280;2916;49.798;10.022;2023-03-23T08:00:38;147495.53;;;13.03;69.68
5780;BME280;2916;49.798;10.022;2023-03-23T08:03:06;147537.84;;;13.21;69.56
5780;BME280;2916;49.798;10.022;2023-03-23T08:05:35;147556.53;;;13.29;69.31
5780;BME280;2916;49.798;10.022;2023-03-23T08:08:02;147556.53;;;13.29;70.38
5780;BME280;2916;49.798;10.022;2023-03-23T08:10:30;147556.53;;;13.29;69.88
5780;BME280;2916;49.798;10.022;2023-03-23T08:12:57;147575.19;;;13.36;70.47
5780;BME280;2916;49.798;10.022;2023-03-23T08:15:25;147583.84;;;13.40;70.36
5780;BME280;2916;49.798;10.022;2023-03-23T08:17:53;147478.13;;;12.96;70.87
5780;BME280;2916;49.798;10.022;2023-03-23T08:20:21;147563.97;;;13.32;71.84
5780;BME280;2916;49.798;10.022;2023-03-23T08:22:54;147530.38;;;13.18;72.24
5780;BME280;2916;49.798;10.022;2023-03-23T08:25:23;147519.19;;;13.13;72.63
5780;BME280;2916;49.798;10.022;2023-03-23T08:27:52;147459.47;;;12.89;74.27
5780;BME280;2916;49.798;10.022;2023-03-23T08:30:21;147517.94;;;13.13;73.33
5780;BME280;2916;49.798;10.022;2023-03-23T08:32:50;147519.19;;;13.13;73.19
5780;BME280;2916;49.798;10.022;2023-03-23T08:35:19;147455.78;;;12.87;74.94
5780;BME280;2916;49.798;10.022;2023-03-23T08:37:47;147486.84;;;13.00;74.24
5780;BME280;2916;49.798;10.022;2023-03-23T08:40:21;147454.53;;;12.87;75.59
5780;BME280;2916;49.798;10.022;2023-03-23T08:42:51;147471.94;;;12.94;77.20
5780;BME280;2916;49.798;10.022;2023-03-23T08:45:22;147424.72;;;12.74;77.93
5780;BME280;2916;49.798;10.022;2023-03-23T08:47:50;147414.78;;;12.70;78.08
5780;BME280;2916;49.798;10.022;2023-03-23T08:50:25;147412.31;;;12.69;78.87
5780;BME280;2916;49.798;10.022;2023-03-23T08:52:53;147418.47;;;12.72;79.23
5780;BME280;2916;49.798;10.022;2023-03-23T08:55:22;147399.84;;;12.64;80.17
5780;BME280;2916;49.798;10.022;2023-03-23T08:57:50;147335.22;;;12.38;80.58
5780;BME280;2916;49.798;10.022;2023-03-23T09:00:21;147387.44;;;12.59;81.34
5780;BME280;2916;49.798;10.022;2023-03-23T09:02:52;147393.66;;;12.62;81.98
5780;BME280;2916;49.798;10.022;2023-03-23T09:05:22;147414.78;;;12.70;80.21
5780;BME280;2916;49.798;10.022;2023-03-23T09:07:53;147407.31;;;12.67;80.72
5780;BME280;2916;49.798;10.022;2023-03-23T09:10:22;147424.72;;;12.74;79.37
5780;BME280;2916;49.798;10.022;2023-03-23T09:12:53;147433.41;;;12.78;78.58
5780;BME280;2916;49.798;10.022;2023-03-23T09:15:21;147430.91;;;12.77;78.68
5780;BME280;2916;49.798;10.022;2023-03-23T09:17:51;147440.88;;;12.81;79.64
5780;BME280;2916;49.798;10.022;2023-03-23T09:20:22;147394.91;;;12.62;78.86
5780;BME280;2916;49.798;10.022;2023-03-23T09:22:51;147427.19;;;12.75;77.78
5780;BME280;2916;49.798;10.022;2023-03-23T09:25:25;147424.72;;;12.74;78.66
5780;BME280;2916;49.798;10.022;2023-03-23T09:27:55;147419.72;;;12.72;78.83
5780;BME280;2916;49.798;10.022;2023-03-23T09:30:26;147416.00;;;12.71;78.53
5780;BME280;2916;49.798;10.022;2023-03-23T09:32:54;147362.56;;;12.49;79.49
5780;BME280;2916;49.798;10.022;2023-03-23T09:35:22;147419.72;;;12.72;79.83
5780;BME280;2916;49.798;10.022;2023-03-23T09:37:51;147417.25;;;12.71;79.28
5780;BME280;2916;49.798;10.022;2023-03-23T09:40:24;147422.25;;;12.73;79.51
5780;BME280;2916;49.798;10.022;2023-03-23T09:43:33;147315.34;;;12.29;80.42
5780;BME280;2916;49.798;10.022;2023-03-23T09:46:24;147404.84;;;12.66;79.91
5780;BME280;2916;49.798;10.022;2023-03-23T09:48:59;147414.78;;;12.70;79.75
5780;BME280;2916;49.798;10.022;2023-03-23T09:51:39;147402.31;;;12.65;80.46
5780;BME280;2916;49.798;10.022;2023-03-23T09:54:17;147448.31;;;12.84;80.88
5780;BME280;2916;49.798;10.022;2023-03-23T09:56:49;147437.13;;;12.80;80.86
5780;BME280;2916;49.798;10.022;2023-03-23T09:59:24;147414.78;;;12.70;80.93
5780;BME280;2916;49.798;10.022;2023-03-23T10:02:08;147398.59;;;12.64;81.46
5780;BME280;2916;49.798;10.022;2023-03-23T10:04:44;147387.44;;;12.59;81.96
5780;BME280;2916;49.798;10.022;2023-03-23T10:07:15;147434.66;;;12.78;81.89
5780;BME280;2916;49.798;10.022;2023-03-23T10:09:45;147429.66;;;12.76;80.58
5780;BME280;2916;49.798;10.022;2023-03-23T10:12:26;147394.91;;;12.62;80.33
5780;BME280;2916;49.798;10.022;2023-03-23T10:15:12;147434.66;;;12.78;80.84
5780;BME280;2916;49.798;10.022;2023-03-23T10:17:49;147428.41;;;12.76;80.50
5780;BME280;2916;49.798;10.022;2023-03-23T10:20:42;147471.94;;;12.94;81.04
5780;BME280;2916;49.798;10.022;2023-03-23T10:23:24;147480.66;;;12.97;80.99
5780;BME280;2916;49.798;10.022;2023-03-23T10:26:10;147422.25;;;12.73;81.94
5780;BME280;2916;49.798;10.022;2023-03-23T10:28:44;147474.41;;;12.95;80.65
5780;BME280;2916;49.798;10.022;2023-03-23T10:31:17;147491.81;;;13.02;79.79
5780;BME280;2916;49.798;10.022;2023-03-23T10:33:48;147500.53;;;13.06;80.22
5780;BME280;2916;49.798;10.022;2023-03-23T10:36:23;147485.59;;;12.99;78.88
5780;BME280;2916;49.798;10.022;2023-03-23T10:38:58;147511.72;;;13.10;79.25
5780;BME280;2916;49.798;10.022;2023-03-23T10:41:27;147496.78;;;13.04;79.13
5780;BME280;2916;49.798;10.022;2023-03-23T10:43:55;147494.31;;;13.03;78.05
5780;BME280;2916;49.798;10.022;2023-03-23T10:46:32;147554.00;;;13.27;77.48
5780;BME280;2916;49.798;10.022;2023-03-23T10:49:09;147583.84;;;13.40;76.65
5780;BME280;2916;49.798;10.022;2023-03-23T10:51:46;147621.16;;;13.55;75.89
5780;BME280;2916;49.798;10.022;2023-03-23T10:54:26;147621.16;;;13.55;74.80
5780;BME280;2916;49.798;10.022;2023-03-23T10:56:54;147660.94;;;13.71;74.45
5780;BME280;2916;49.798;10.022;2023-03-23T10:59:32;147674.66;;;13.77;74.71
5780;BME280;2916;49.798;10.022;2023-03-23T11:02:02;147720.66;;;13.96;74.34
5780;BME280;2916;49.798;10.022;2023-03-23T11:04:37;147766.72;;;14.15;73.88
5780;BME280;2916;49.798;10.022;2023-03-23T11:07:04;147730.63;;;14.00;72.29
5780;BME280;2916;49.798;10.022;2023-03-23T11:09:37;147781.59;;;14.21;73.26
5780;BME280;2916;49.798;10.022;2023-03-23T11:12:17;147738.09;;;14.03;72.48
5780;BME280;2916;49.798;10.022;2023-03-23T11:14:46;147758.00;;;14.11;72.49
5780;BME280;2916;49.798;10.022;2023-03-23T11:17:22;147786.63;;;14.23;71.73
5780;BME280;2916;49.798;10.022;2023-03-23T11:19:51;147690.81;;;13.84;72.54
5780;BME280;2916;49.798;10.022;2023-03-23T11:22:26;147672.16;;;13.76;71.55
5780;BME280;2916;49.798;10.022;2023-03-23T11:24:55;147780.38;;;14.20;70.13
5780;BME280;2916;49.798;10.022;2023-03-23T11:27:24;147833.88;;;14.42;70.34
5780;BME280;2916;49.798;10.022;2023-03-23T11:29:59;147770.44;;;14.16;69.33
5780;BME280;2916;49.798;10.022;2023-03-23T11:32:29;147761.72;;;14.13;69.69
5780;BME280;2916;49.798;10.022;2023-03-23T11:34:59;147759.22;;;14.12;70.83
5780;BME280;2916;49.798;10.022;2023-03-23T11:37:34;147799.03;;;14.28;71.46
5780;BME280;2916;49.798;10.022;2023-03-23T11:40:17;147809.00;;;14.32;69.43
5780;BME280;2916;49.798;10.022;2023-03-23T11:42:48;147812.69;;;14.34;69.60
5780;BME280;2916;49.798;10.022;2023-03-23T11:45:22;147817.69;;;14.36;69.46
5780;BME280;2916;49.798;10.022;2023-03-23T11:48:03;147772.91;;;14.17;70.43
5780;BME280;2916;49.798;10.022;2023-03-23T11:50:45;147792.78;;;14.25;69.99
5780;BME280;2916;49.798;10.022;2023-03-23T11:53:24;147816.47;;;14.35;70.54
5780;BME280;2916;49.798;10.022;2023-03-23T11:56:11;147781.59;;;14.21;70.06
5780;BME280;2916;49.798;10.022;2023-03-23T11:58:40;147800.28;;;14.29;71.50
5780;BME280;2916;49.798;10.022;2023-03-23T12:01:19;147765.41;;;14.14;72.01
5780;BME280;2916;49.798;10.022;2023-03-23T12:04:39;147744.28;;;14.06;73.18
5780;BME280;2916;49.798;10.022;2023-03-23T12:07:48;147715.69;;;13.94;73.73
5780;BME280;2916;49.798;10.022;2023-03-23T12:10:30;147702.00;;;13.88;74.16
5780;BME280;2916;49.798;10.022;2023-03-23T12:13:19;147705.72;;;13.90;74.13
5780;BME280;2916;49.798;10.022;2023-03-23T12:16:00;147695.78;;;13.86;73.62
5780;BME280;2916;49.798;10.022;2023-03-23T12:18:48;147581.38;;;13.39;75.16
5780;BME280;2916;49.798;10.022;2023-03-23T12:21:34;147663.47;;;13.72;75.72
5780;BME280;2916;49.798;10.022;2023-03-23T12:24:20;147670.94;;;13.75;74.33
5780;BME280;2916;49.798;10.022;2023-03-23T12:26:58;147600.03;;;13.46;74.42
5780;BME280;2916;49.798;10.022;2023-03-23T12:29:48;147672.16;;;13.76;75.36
5780;BME280;2916;49.798;10.022;2023-03-23T12:32:46;147673.41;;;13.77;75.88
5780;BME280;2916;49.798;10.022;2023-03-23T12:35:38;147675.88;;;13.78;76.12
5780;BME280;2916;49.798;10.022;2023-03-23T12:38:45;147651.00;;;13.67;75.72
5780;BME280;2916;49.798;10.022;2023-03-23T12:41:23;147677.13;;;13.78;76.60
5780;BME280;2916;49.798;10.022;2023-03-23T12:44:00;147648.53;;;13.66;76.62
5780;BME280;2916;49.798;10.022;2023-03-23T12:46:56;147657.22;;;13.70;76.48
5780;BME280;2916;49.798;10.022;2023-03-23T12:49:35;147621.16;;;13.55;77.21
5780;BME280;2916;49.798;10.022;2023-03-23T12:52:18;147651.00;;;13.67;77.62
5780;BME280;2916;49.798;10.022;2023-03-23T12:54:53;147669.66;;;13.75;77.22
5780;BME280;2916;49.798;10.022;2023-03-23T12:57:29;147688.31;;;13.83;77.18
5780;BME280;2916;49.798;10.022;2023-03-23T13:00:06;147720.66;;;13.96;77.02
5780;BME280;2916;49.798;10.022;2023-03-23T13:02:44;147710.72;;;13.92;76.34
5780;BME280;2916;49.798;10.022;2023-03-23T13:05:29;147741.81;;;14.05;76.78
5780;BME280;2916;49.798;10.022;2023-03-23T13:08:06;147764.19;;;14.14;78.30
5780;BME280;2916;49.798;10.022;2023-03-23T13:10:44;147765.41;;;14.14;78.60
5780;BME280;2916;49.798;10.022;2023-03-23T13:13:18;147766.72;;;14.15;79.07
5780;BME280;2916;49.798;10.022;2023-03-23T13:16:02;147733.09;;;14.01;79.50
5780;BME280;2916;49.798;10.022;2023-03-23T13:18:44;147799.03;;;14.28;79.41
5780;BME280;2916;49.798;10.022;2023-03-23T13:21:21;147718.16;;;13.95;79.80
5780;BME280;2916;49.798;10.022;2023-03-23T13:23:58;147761.72;;;14.13;79.83
5780;BME280;2916;49.798;10.022;2023-03-23T13:26:27;147735.56;;;14.02;79.86
5780;BME280;2916;49.798;10.022;2023-03-23T13:28:58;147776.66;;;14.19;79.43